Time;durP1;ratioP1;P1;durP2;ratioP2;P2;SDS_P1;SDS_P2;PMS_P1;PMS_P2;Temp;Humidity;BMP_temperature;BMP_pressure;BME280_temperature;BME280_humidity;BME280_pressure;Samples;Min_cycle;Max_cycle;Signal;HPM_P1;HPM_P2
2022/06/07 00:00:52;;;;;;;3.33;3.13;;;;;;;20.54;100.00;99367.13;5090831;28;20676;-67
2022/06/07 00:03:20;;;;;;;3.80;3.33;;;;;;;20.58;100.00;99371.13;5091514;28;20263;-67
2022/06/07 00:05:47;;;;;;;3.40;3.13;;;;;;;20.62;100.00;99370.00;5087396;28;20293;-67
2022/06/07 00:08:16;;;;;;;3.33;3.07;;;;;;;20.53;100.00;99355.03;5091588;28;20197;-67
2022/06/07 00:10:43;;;;;;;3.27;3.17;;;;;;;20.69;100.00;99371.22;5092207;28;20201;-67
2022/06/07 00:13:11;;;;;;;3.57;2.80;;;;;;;20.71;100.00;99378.94;5092121;28;20214;-66
2022/06/07 00:15:39;;;;;;;6.00;3.23;;;;;;;20.67;100.00;99378.31;5092153;28;20259;-67
2022/06/07 00:18:07;;;;;;;3.53;3.30;;;;;;;20.70;100.00;99375.50;5091338;28;20225;-67
2022/06/07 00:20:34;;;;;;;3.60;3.30;;;;;;;20.71;100.00;99374.53;5091621;28;20234;-67
2022/06/07 00:23:01;;;;;;;3.77;3.57;;;;;;;20.75;100.00;99375.16;5091740;28;20259;-67
2022/06/07 00:25:28;;;;;;;3.50;3.20;;;;;;;20.76;100.00;99366.41;5091931;28;20586;-67
2022/06/07 00:27:55;;;;;;;9.03;3.90;;;;;;;20.79;100.00;99367.00;5091876;28;20193;-68
2022/06/07 00:30:23;;;;;;;3.27;3.13;;;;;;;20.80;100.00;99363.47;5090677;28;20253;-67
2022/06/07 00:32:51;;;;;;;3.63;3.53;;;;;;;20.82;100.00;99366.78;5091352;28;20211;-67
2022/06/07 00:35:18;;;;;;;3.13;2.93;;;;;;;20.83;100.00;99365.84;5091835;28;20669;-67
2022/06/07 00:37:45;;;;;;;4.07;3.77;;;;;;;20.85;100.00;99360.50;5091622;28;20283;-67
2022/06/07 00:40:13;;;;;;;3.93;3.03;;;;;;;20.80;100.00;99350.44;5091927;28;20205;-67
2022/06/07 00:42:40;;;;;;;4.77;4.20;;;;;;;20.87;100.00;99358.66;5090693;28;20195;-67
2022/06/07 00:45:07;;;;;;;5.53;3.10;;;;;;;20.88;100.00;99368.94;5091836;28;20665;-67
2022/06/07 00:47:34;;;;;;;4.73;4.33;;;;;;;20.87;100.00;99366.47;5090390;28;20571;-67
2022/06/07 00:50:06;;;;;;;5.27;3.70;;;;;;;20.87;100.00;99364.66;5091598;28;20229;-67
2022/06/07 00:52:36;;;;;;;3.70;3.50;;;;;;;20.85;100.00;99360.50;5086614;28;20203;-67
2022/06/07 00:55:06;;;;;;;5.50;3.87;;;;;;;20.83;100.00;99360.63;5087732;28;20211;-67
2022/06/07 00:57:33;;;;;;;6.13;3.60;;;;;;;20.72;100.00;99333.69;5089975;28;20592;-67
2022/06/07 00:59:59;;;;;;;4.20;4.00;;;;;;;20.81;100.00;99356.47;5090889;28;20230;-67
2022/06/07 01:02:26;;;;;;;3.80;3.50;;;;;;;20.80;100.00;99368.69;5090679;28;20256;-67
2022/06/07 01:04:53;;;;;;;4.03;3.63;;;;;;;20.69;100.00;99345.16;5091106;28;20578;-67
2022/06/07 01:12:51;;;;;;;4.07;3.73;;;;;;;20.65;100.00;99348.94;5090714;28;20271;-67
2022/06/07 01:15:18;;;;;;;5.33;4.30;;;;;;;20.66;100.00;99355.81;5090424;28;20213;-67
2022/06/07 01:17:45;;;;;;;3.37;3.17;;;;;;;20.65;100.00;99348.94;5088866;28;20223;-68
2022/06/07 01:20:12;;;;;;;4.00;3.80;;;;;;;20.65;100.00;99345.47;5087412;28;20206;-67
2022/06/07 01:22:41;;;;;;;4.80;3.47;;;;;;;20.64;100.00;99349.88;5087969;28;20707;-67
2022/06/07 01:25:09;;;;;;;4.97;4.50;;;;;;;20.65;100.00;99351.53;5088615;28;20653;-67
2022/06/07 01:27:38;;;;;;;6.60;3.90;;;;;;;20.60;100.00;99334.59;5088718;28;20198;-67
2022/06/07 01:30:06;;;;;;;4.17;4.03;;;;;;;20.66;100.00;99354.97;5087977;28;20205;-67
2022/06/07 01:32:33;;;;;;;4.07;3.87;;;;;;;20.66;100.00;99358.41;5091015;28;20197;-67
2022/06/07 01:35:00;;;;;;;4.67;4.20;;;;;;;20.60;100.00;99353.66;5090540;28;20235;-67
2022/06/07 01:37:27;;;;;;;5.50;3.83;;;;;;;20.61;100.00;99365.75;5090695;28;20215;-67
2022/06/07 01:42:39;;;;;;;8.27;4.53;;;;;;;20.51;100.00;99356.91;5088414;28;20225;-67
2022/06/07 01:45:07;;;;;;;4.67;4.30;;;;;;;20.40;100.00;99359.44;5090496;28;20669;-67
2022/06/07 01:47:35;;;;;;;4.70;3.50;;;;;;;20.27;100.00;99350.84;5090887;28;20670;-67
2022/06/07 01:50:02;;;;;;;3.97;3.67;;;;;;;20.21;100.00;99359.88;5090576;28;20205;-67
2022/06/07 01:52:30;;;;;;;3.53;3.33;;;;;;;20.17;100.00;99352.38;5088416;28;20237;-67
2022/06/07 01:54:59;;;;;;;4.10;3.80;;;;;;;20.15;100.00;99354.28;5089225;28;21498;-67
2022/06/07 01:57:26;;;;;;;4.17;3.87;;;;;;;20.17;100.00;99358.44;5090459;28;20665;-67
2022/06/07 01:59:54;;;;;;;4.90;3.30;;;;;;;20.18;100.00;99354.88;5090273;28;20207;-66
2022/06/07 02:02:24;;;;;;;5.00;3.30;;;;;;;20.09;100.00;99339.09;5090260;28;20198;-67
2022/06/07 02:04:52;;;;;;;6.47;4.10;;;;;;;20.18;100.00;99356.66;5090102;28;20741;-67
2022/06/07 02:07:19;;;;;;;5.63;3.80;;;;;;;20.19;100.00;99360.94;5090451;28;20208;-67
2022/06/07 02:09:46;;;;;;;6.20;3.97;;;;;;;20.20;100.00;99367.78;5090593;28;20202;-67
2022/06/07 02:12:15;;;;;;;4.57;3.90;;;;;;;20.19;100.00;99366.16;5090520;28;20209;-67
2022/06/07 02:14:42;;;;;;;4.10;3.90;;;;;;;20.17;100.00;99365.41;5090652;28;20197;-67
2022/06/07 02:17:09;;;;;;;3.83;3.53;;;;;;;20.17;100.00;99355.81;5089430;28;20590;-67
2022/06/07 02:19:36;;;;;;;3.73;3.40;;;;;;;20.18;100.00;99362.69;5092022;28;20210;-68
2022/06/07 02:22:03;;;;;;;3.93;3.73;;;;;;;20.18;100.00;99374.88;5092721;28;20646;-67
2022/06/07 02:24:30;;;;;;;4.60;3.77;;;;;;;20.19;100.00;99374.78;5093998;28;20705;-67
2022/06/07 02:27:01;;;;;;;3.87;3.53;;;;;;;20.18;100.00;99385.28;5094202;28;20289;-67
2022/06/07 02:29:35;;;;;;;4.43;4.17;;;;;;;20.18;100.00;99395.72;5092129;28;20665;-67
2022/06/07 02:32:06;;;;;;;4.50;4.20;;;;;;;20.17;100.00;99394.03;5094297;28;20202;-67
2022/06/07 02:34:34;;;;;;;5.00;4.13;;;;;;;20.12;100.00;99390.94;5094172;28;20673;-67
2022/06/07 02:37:04;;;;;;;6.67;4.17;;;;;;;20.07;100.00;99390.41;5094248;28;20670;-66
2022/06/07 02:39:32;;;;;;;4.17;3.70;;;;;;;20.04;100.00;99394.03;5093945;28;20576;-66
2022/06/07 02:42:02;;;;;;;5.67;3.77;;;;;;;19.95;100.00;99388.66;5092681;28;20208;-67
2022/06/07 02:44:30;;;;;;;4.03;3.83;;;;;;;19.90;100.00;99397.59;5093971;28;20201;-67
2022/06/07 02:46:57;;;;;;;4.07;3.77;;;;;;;19.87;100.00;99403.00;5093769;28;20198;-67
2022/06/07 02:49:24;;;;;;;5.57;5.07;;;;;;;19.86;100.00;99392.72;5092995;28;20198;-67
2022/06/07 02:51:51;;;;;;;4.23;3.67;;;;;;;19.87;100.00;99397.81;5092698;28;20258;-67
2022/06/07 02:54:17;;;;;;;14.07;4.63;;;;;;;19.91;100.00;99399.25;5089063;28;20205;-67
2022/06/07 02:56:44;;;;;;;4.10;3.77;;;;;;;19.91;100.00;99388.84;5091798;28;20199;-68
2022/06/07 02:59:11;;;;;;;8.90;3.97;;;;;;;19.95;100.00;99404.25;5091749;28;20217;-67
2022/06/07 03:01:39;;;;;;;4.53;4.13;;;;;;;19.97;100.00;99395.41;5093302;28;20213;-68
2022/06/07 03:04:06;;;;;;;10.10;3.83;;;;;;;19.85;100.00;99378.88;5093162;28;20202;-67
2022/06/07 03:06:33;;;;;;;3.97;3.27;;;;;;;19.98;100.00;99398.84;5092784;28;20692;-67
2022/06/07 03:09:00;;;;;;;4.03;3.57;;;;;;;20.03;100.00;99401.97;5092374;28;20202;-67
2022/06/07 03:11:26;;;;;;;8.93;4.43;;;;;;;20.02;100.00;99405.50;5093520;28;20191;-67
2022/06/07 03:13:53;;;;;;;8.60;3.53;;;;;;;19.93;100.00;99397.38;5091534;28;20210;-67
2022/06/07 03:16:20;;;;;;;10.23;4.67;;;;;;;19.91;100.00;99396.66;5091515;28;20202;-67
2022/06/07 03:18:48;;;;;;;4.03;3.73;;;;;;;19.93;100.00;99404.38;5092313;28;20218;-67
2022/06/07 03:21:16;;;;;;;6.30;3.70;;;;;;;19.90;100.00;99391.59;5091177;28;20287;-67
2022/06/07 03:23:43;;;;;;;5.00;4.43;;;;;;;19.86;100.00;99397.91;5090552;28;20286;-67
2022/06/07 03:26:12;;;;;;;8.03;4.40;;;;;;;19.82;100.00;99394.69;5091236;28;20197;-67
2022/06/07 03:28:39;;;;;;;4.03;3.83;;;;;;;19.78;100.00;99401.03;5089756;28;20204;-67
2022/06/07 03:31:08;;;;;;;5.40;4.00;;;;;;;19.73;100.00;99395.31;5088283;28;20196;-67
2022/06/07 03:33:35;;;;;;;4.90;3.83;;;;;;;19.68;100.00;99407.78;5089834;28;20658;-67
2022/06/07 03:36:10;;;;;;;5.23;4.50;;;;;;;19.57;100.00;99405.09;5092444;28;20210;-67
2022/06/07 03:38:37;;;;;;;4.33;4.07;;;;;;;19.60;100.00;99410.09;5086954;28;20223;-66
2022/06/07 03:41:04;;;;;;;4.80;4.40;;;;;;;19.60;100.00;99409.25;5090869;28;20192;-67
2022/06/07 03:43:31;;;;;;;3.83;3.63;;;;;;;19.61;100.00;99411.72;5092716;28;20665;-67
2022/06/07 03:46:07;;;;;;;3.87;3.67;;;;;;;19.60;100.00;99404.88;5092448;28;20201;-68
2022/06/07 03:48:34;;;;;;;8.00;3.97;;;;;;;19.59;100.00;99398.00;5090113;28;20593;-67
2022/06/07 03:51:01;;;;;;;4.87;4.30;;;;;;;19.59;100.00;99403.22;5089650;28;20201;-67
2022/06/07 03:53:29;;;;;;;4.27;4.00;;;;;;;19.59;100.00;99402.38;5092001;28;20201;-67
2022/06/07 03:55:56;;;;;;;5.00;4.70;;;;;;;19.60;100.00;99409.25;5092479;28;20192;-67
2022/06/07 03:58:23;;;;;;;5.07;4.63;;;;;;;19.66;100.00;99404.47;5092388;28;20238;-67
2022/06/07 04:00:49;;;;;;;4.43;4.17;;;;;;;19.72;100.00;99404.06;5092468;28;20195;-67
2022/06/07 04:03:16;;;;;;;5.80;5.17;;;;;;;19.76;100.00;99405.53;5092196;28;20191;-67
2022/06/07 04:05:45;;;;;;;5.67;5.17;;;;;;;19.75;100.00;99401.25;5091795;28;20219;-67
2022/06/07 04:08:12;;;;;;;5.27;4.67;;;;;;;19.71;100.00;99386.78;5091194;28;20693;-67
2022/06/07 04:10:45;;;;;;;4.77;4.47;;;;;;;19.79;100.00;99405.31;5092193;28;20228;-67
2022/06/07 04:13:12;;;;;;;4.90;4.53;;;;;;;19.84;100.00;99408.41;5091557;28;20664;-68
2022/06/07 04:15:38;;;;;;;5.33;5.03;;;;;;;19.85;100.00;99410.09;5092100;28;20209;-67
2022/06/07 04:18:05;;;;;;;4.87;4.63;;;;;;;19.97;100.00;99412.81;5091062;28;20197;-68
2022/06/07 04:20:32;;;;;;;5.07;4.77;;;;;;;20.02;100.00;99424.56;5091871;28;20200;-68
2022/06/07 04:22:59;;;;;;;4.60;4.33;;;;;;;20.00;100.00;99418.59;5092056;28;20579;-67
2022/06/07 04:25:27;;;;;;;4.90;4.57;;;;;;;20.14;100.00;99426.31;5091136;28;20696;-67
2022/06/07 04:27:56;;;;;;;5.30;4.80;;;;;;;20.25;100.00;99429.03;5091789;28;20204;-67
2022/06/07 04:30:23;;;;;;;5.23;5.00;;;;;;;20.33;100.00;99431.09;5087597;28;20210;-68
2022/06/07 04:32:49;;;;;;;5.17;4.70;;;;;;;20.40;100.00;99429.75;5092078;28;20615;-67
2022/06/07 04:35:18;;;;;;;6.73;4.73;;;;;;;20.29;100.00;99382.81;5091871;28;20206;-67
2022/06/07 04:37:45;;;;;;;4.80;4.60;;;;;;;20.65;100.00;99427.06;5090724;28;20285;-67
2022/06/07 04:40:12;;;;;;;4.47;4.23;;;;;;;20.74;100.00;99431.63;5090917;28;20699;-67
2022/06/07 04:42:39;;;;;;;4.73;4.30;;;;;;;20.84;100.00;99427.44;5090434;28;20625;-68
2022/06/07 04:45:12;;;;;;;4.97;4.77;;;;;;;20.97;100.00;99437.00;5084121;28;20207;-67
2022/06/07 04:47:39;;;;;;;5.13;4.83;;;;;;;21.07;100.00;99444.00;5082855;28;20202;-67
2022/06/07 04:50:07;;;;;;;4.97;4.57;;;;;;;21.22;100.00;99437.75;5088344;28;20193;-67
2022/06/07 04:52:33;;;;;;;6.73;4.37;;;;;;;21.27;100.00;99445.19;5087951;28;20264;-67
2022/06/07 04:55:00;;;;;;;4.60;4.40;;;;;;;21.21;100.00;99424.78;5086602;28;20229;-69
2022/06/07 04:57:29;;;;;;;4.50;4.30;;;;;;;21.46;100.00;99448.13;5083129;28;20199;-70
2022/06/07 04:59:56;;;;;;;4.63;4.43;;;;;;;21.46;100.00;99448.13;5085329;28;20223;-69
2022/06/07 05:02:24;;;;;;;4.70;4.30;;;;;;;21.55;100.00;99455.25;5086514;28;20195;-69
2022/06/07 05:04:51;;;;;;;8.13;4.50;;;;;;;21.59;100.00;99456.69;5085259;28;20206;-70
2022/06/07 05:07:18;;;;;;;5.37;4.97;;;;;;;21.57;100.00;99463.81;5089162;28;20207;-69
2022/06/07 05:09:44;;;;;;;5.47;5.07;;;;;;;21.65;100.00;99465.88;5087004;28;20674;-71
2022/06/07 05:12:11;;;;;;;5.33;4.97;;;;;;;21.77;100.00;99476.22;5087532;28;20199;-67
2022/06/07 05:14:39;;;;;;;4.80;4.50;;;;;;;21.80;100.00;99472.53;5084877;28;20210;-67
2022/06/07 05:17:06;;;;;;;6.37;5.87;;;;;;;21.80;100.00;99470.78;5081947;28;20207;-67
2022/06/07 05:19:34;;;;;;;5.60;5.23;;;;;;;21.78;100.00;99477.03;5086681;28;20225;-69
2022/06/07 05:22:01;;;;;;;7.10;5.53;;;;;;;21.86;100.00;99475.53;5089151;28;20276;-69
2022/06/07 05:24:28;;;;;;;13.23;6.00;;;;;;;21.84;100.00;99469.56;5084168;28;20231;-71
2022/06/07 05:26:59;;;;;;;6.40;6.00;;;;;;;21.81;100.00;99477.63;5085093;28;20239;-70
2022/06/07 05:29:28;;;;;;;5.40;5.10;;;;;;;21.81;100.00;99485.47;5084329;28;20199;-69
2022/06/07 05:31:55;;;;;;;5.97;5.60;;;;;;;21.83;100.00;99486.19;5085622;28;20229;-70
2022/06/07 05:34:22;;;;;;;5.60;5.00;;;;;;;21.90;100.00;99478.78;5088348;28;20203;-69
2022/06/07 05:36:50;;;;;;;6.90;6.30;;;;;;;21.98;100.00;99479.84;5088390;28;20214;-69
2022/06/07 05:39:23;;;;;;;6.50;6.03;;;;;;;22.06;100.00;99481.88;5088279;28;20225;-68
2022/06/07 05:41:51;;;;;;;6.23;5.73;;;;;;;22.17;100.00;99475.81;5088754;28;20211;-69
2022/06/07 05:44:19;;;;;;;6.23;5.63;;;;;;;22.30;100.00;99473.94;5087835;28;20214;-69
2022/06/07 05:46:46;;;;;;;5.80;5.30;;;;;;;22.28;100.00;99440.13;5088447;28;20335;-70
2022/06/07 05:49:13;;;;;;;4.97;4.63;;;;;;;22.61;100.00;99481.06;5087796;28;20195;-70
2022/06/07 05:51:40;;;;;;;5.30;5.10;;;;;;;22.75;100.00;99486.06;5087477;28;20683;-69
2022/06/07 05:54:09;;;;;;;6.13;5.63;;;;;;;22.73;100.00;99440.09;5091006;28;20650;-68
2022/06/07 05:56:35;;;;;;;5.40;4.90;;;;;;;23.18;100.00;99477.41;5093686;28;20688;-71
2022/06/07 05:59:05;;;;;;;5.40;4.80;;;;;;;23.42;100.00;99470.25;5090056;28;20214;-71
2022/06/07 06:01:32;;;;;;;7.63;4.87;;;;;;;23.78;100.00;99472.41;5089657;28;20234;-70
2022/06/07 06:03:59;;;;;;;5.10;4.20;;;;;;;24.17;97.99;99477.94;5092394;28;20663;-70
2022/06/07 06:06:26;;;;;;;6.30;5.47;;;;;;;24.56;98.37;99474.50;5093136;28;20651;-69
2022/06/07 06:11:39;;;;;;;4.60;4.40;;;;;;;25.06;91.68;99468.31;5093694;28;20206;-71
2022/06/07 06:14:06;;;;;;;4.50;4.20;;;;;;;25.27;92.08;99467.34;5086348;28;20211;-70
2022/06/07 06:16:32;;;;;;;4.80;4.23;;;;;;;25.60;89.46;99466.97;5084055;28;20211;-70
2022/06/07 06:19:00;;;;;;;5.00;4.70;;;;;;;25.87;88.28;99474.97;5090773;28;20215;-71
2022/06/07 06:21:32;;;;;;;3.90;3.70;;;;;;;25.94;85.31;99459.47;5089687;28;20234;-70
2022/06/07 06:24:00;;;;;;;3.80;3.60;;;;;;;26.14;79.14;99481.28;5091370;28;20238;-71
2022/06/07 06:26:29;;;;;;;3.07;2.87;;;;;;;26.17;76.40;99486.28;5092519;28;20211;-71
2022/06/07 06:28:57;;;;;;;3.70;3.30;;;;;;;26.29;75.30;99487.75;5090210;28;20656;-70
2022/06/07 06:31:24;;;;;;;4.00;3.43;;;;;;;26.56;75.79;99487.75;5091654;28;20214;-70
2022/06/07 06:33:53;;;;;;;3.23;3.13;;;;;;;26.82;77.04;99488.78;5090842;28;20222;-71
2022/06/07 06:36:22;;;;;;;3.30;3.10;;;;;;;27.08;78.76;99475.72;5091266;28;20663;-71
2022/06/07 06:38:49;;;;;;;3.03;2.90;;;;;;;27.22;71.98;99482.28;5091921;28;20214;-70
2022/06/07 06:41:19;;;;;;;3.83;2.23;;;;;;;27.43;71.39;99488.94;5091699;28;20215;-70
2022/06/07 06:43:46;;;;;;;2.17;2.07;;;;;;;27.35;66.96;99491.47;5091184;28;20200;-71
2022/06/07 06:46:17;;;;;;;3.40;2.23;;;;;;;27.65;64.64;99482.38;5090495;28;20586;-70
2022/06/07 06:48:44;;;;;;;3.27;2.43;;;;;;;27.80;64.77;99491.38;5089708;28;20289;-71
2022/06/07 06:51:13;;;;;;;1.87;1.80;;;;;;;28.00;66.34;99489.38;5091914;28;20238;-73
2022/06/07 06:53:42;;;;;;;1.53;1.53;;;;;;;28.07;64.70;99479.91;5092214;28;20564;-71
2022/06/07 06:56:10;;;;;;;1.80;1.70;;;;;;;27.54;61.61;99490.50;5089869;28;20207;-71
2022/06/07 06:58:36;;;;;;;1.37;1.27;;;;;;;27.49;59.28;99487.53;5091820;28;20667;-71
2022/06/07 07:01:07;;;;;;;1.80;1.43;;;;;;;27.24;57.07;99456.66;5090585;28;20215;-71
2022/06/07 07:03:36;;;;;;;1.10;1.10;;;;;;;27.38;58.74;99482.44;5089883;28;20264;-72
2022/06/07 07:06:06;;;;;;;1.80;1.77;;;;;;;27.27;64.61;99466.88;5086819;28;20199;-71
2022/06/07 07:08:35;;;;;;;1.30;1.30;;;;;;;27.26;60.87;99471.31;5088876;28;20203;-73
2022/06/07 07:11:04;;;;;;;1.57;1.47;;;;;;;27.48;64.39;99456.88;5089745;28;20202;-72
2022/06/07 07:13:31;;;;;;;3.03;1.43;;;;;;;27.73;58.06;99473.69;5090200;28;20789;-71
2022/06/07 07:15:58;;;;;;;1.93;1.83;;;;;;;27.91;58.66;99470.06;5089979;28;20200;-71
2022/06/07 07:18:25;;;;;;;1.60;1.50;;;;;;;28.04;56.27;99456.47;5089598;28;20296;-71
2022/06/07 07:20:53;;;;;;;1.67;1.57;;;;;;;28.39;64.99;99447.63;5086851;28;20219;-72
2022/06/07 07:23:22;;;;;;;1.80;1.70;;;;;;;28.57;57.56;99465.00;5091010;28;20262;-72
2022/06/07 07:25:49;;;;;;;4.57;1.70;;;;;;;28.86;64.32;99455.88;5087631;28;20200;-72
2022/06/07 07:28:16;;;;;;;2.25;1.85;;;;;;;28.99;62.90;99459.72;5090822;28;20677;-72
2022/06/07 07:30:43;;;;;;;1.93;1.70;;;;;;;29.27;60.08;99454.19;5088747;28;20296;-72
2022/06/07 07:33:10;;;;;;;2.58;1.90;;;;;;;28.69;62.08;99441.84;5088325;28;20264;-73
2022/06/07 07:35:37;;;;;;;1.38;1.38;;;;;;;28.54;58.34;99453.94;5089749;28;20203;-72
2022/06/07 07:38:05;;;;;;;1.50;1.50;;;;;;;28.74;59.42;99444.81;5088052;28;20199;-72
2022/06/07 07:40:32;;;;;;;1.73;1.63;;;;;;;28.91;58.33;99451.78;5087611;28;20215;-72
2022/06/07 07:42:59;;;;;;;3.25;1.75;;;;;;;29.19;60.87;99450.50;5088501;28;20210;-72
2022/06/07 07:45:26;;;;;;;1.67;1.57;;;;;;;29.43;57.88;99451.56;5089669;28;20210;-72
2022/06/07 07:47:53;;;;;;;1.55;1.55;;;;;;;29.65;59.81;99443.78;5087807;28;20253;-71
2022/06/07 07:50:20;;;;;;;1.67;1.60;;;;;;;29.28;55.75;99435.53;5089851;28;20207;-72
2022/06/07 07:52:47;;;;;;;1.40;1.40;;;;;;;29.38;52.91;99448.56;5090440;28;20203;-71
2022/06/07 07:55:15;;;;;;;2.95;1.52;;;;;;;29.38;53.03;99443.28;5090644;28;20261;-72
2022/06/07 07:57:42;;;;;;;1.48;1.45;;;;;;;29.22;53.15;99427.41;5090140;28;20191;-71
2022/06/07 08:00:10;;;;;;;1.17;1.17;;;;;;;28.99;52.43;99428.03;5090244;28;20219;-72
2022/06/07 08:02:37;;;;;;;1.45;1.35;;;;;;;29.39;53.26;99434.38;5090514;28;20571;-72
2022/06/07 08:05:05;;;;;;;1.30;1.30;;;;;;;29.47;50.94;99421.16;5089416;28;20700;-72
2022/06/07 08:07:32;;;;;;;1.20;1.20;;;;;;;29.77;51.06;99438.16;5084353;28;20195;-72
2022/06/07 08:10:01;;;;;;;1.30;1.30;;;;;;;29.79;50.65;99428.25;5088733;28;20200;-71
2022/06/07 08:12:29;;;;;;;1.55;1.45;;;;;;;29.94;49.56;99439.81;5089820;28;20206;-72
2022/06/07 08:14:56;;;;;;;1.60;1.60;;;;;;;29.98;51.23;99431.38;5090284;28;20203;-72
2022/06/07 08:17:23;;;;;;;2.50;1.90;;;;;;;29.91;50.38;99430.41;5089881;28;20199;-72
2022/06/07 08:19:50;;;;;;;4.85;1.73;;;;;;;30.11;51.99;99418.44;5089115;28;20323;-72
2022/06/07 08:22:17;;;;;;;1.88;1.77;;;;;;;30.33;51.29;99421.34;5090403;28;20212;-71
2022/06/07 08:24:43;;;;;;;1.58;1.50;;;;;;;30.47;49.61;99425.94;5089892;28;20230;-71
2022/06/07 08:27:10;;;;;;;1.70;1.65;;;;;;;30.36;48.89;99418.34;5090232;28;20199;-70
2022/06/07 08:29:40;;;;;;;3.33;2.20;;;;;;;30.23;51.35;99404.84;5087889;28;20206;-71
2022/06/07 08:32:07;;;;;;;1.92;1.83;;;;;;;30.30;50.30;99411.94;5088028;28;20199;-72
2022/06/07 08:37:34;;;;;;;1.60;1.60;;;;;;;30.33;49.84;99400.19;5087936;28;20709;-72
2022/06/07 08:40:01;;;;;;;2.33;2.22;;;;;;;30.16;50.52;99392.31;5089556;28;20576;-69
2022/06/07 08:42:31;;;;;;;2.13;2.00;;;;;;;29.99;50.82;99411.84;5090496;28;20191;-71
2022/06/07 08:45:02;;;;;;;1.77;1.67;;;;;;;29.61;50.43;99402.00;5090462;28;20214;-70
2022/06/07 08:47:36;;;;;;;2.05;1.98;;;;;;;29.61;49.50;99404.66;5089942;28;20200;-71
2022/06/07 08:50:08;;;;;;;2.08;1.88;;;;;;;29.31;51.55;99403.50;5090693;28;20191;-71
2022/06/07 08:52:36;;;;;;;4.30;2.33;;;;;;;29.22;54.11;99369.31;5089488;28;20199;-71
2022/06/07 08:55:13;;;;;;;2.25;2.15;;;;;;;29.56;58.99;99385.84;5089589;28;20289;-72
2022/06/07 08:57:39;;;;;;;4.80;2.67;;;;;;;29.81;55.50;99392.72;5089691;28;20214;-71
2022/06/07 09:00:17;;;;;;;3.03;2.83;;;;;;;29.57;53.24;99384.81;5089774;28;20210;-72
2022/06/07 09:03:26;;;;;;;3.05;2.95;;;;;;;29.45;53.59;99380.88;5087471;28;20203;-71
2022/06/07 09:05:54;;;;;;;3.45;3.25;;;;;;;29.63;54.51;99378.88;5085093;28;20207;-71
2022/06/07 09:08:22;;;;;;;2.88;2.67;;;;;;;29.78;57.27;99371.91;5089038;28;20587;-72
2022/06/07 09:13:35;;;;;;;3.85;2.92;;;;;;;29.44;55.18;99364.22;5089358;28;20257;-71
2022/06/07 09:16:05;;;;;;;2.65;2.55;;;;;;;29.36;54.13;99373.97;5089380;28;20273;-72
2022/06/07 09:18:33;;;;;;;2.50;2.40;;;;;;;29.12;53.32;99353.63;5089133;28;20297;-72
2022/06/07 09:21:07;;;;;;;2.53;2.42;;;;;;;29.49;56.20;99371.66;5089174;28;20225;-72
2022/06/07 09:23:43;;;;;;;2.17;2.08;;;;;;;29.56;55.14;99372.63;5088627;28;20227;-71
2022/06/07 09:26:24;;;;;;;2.53;2.42;;;;;;;29.78;54.29;99366.63;5085552;28;20575;-72
2022/06/07 09:29:05;;;;;;;2.70;2.50;;;;;;;29.69;55.81;99365.00;5086608;28;20203;-72
2022/06/07 09:31:39;;;;;;;3.10;3.00;;;;;;;29.66;54.61;99363.50;5088723;28;20191;-71
2022/06/07 09:34:09;;;;;;;2.70;2.60;;;;;;;29.35;53.13;99332.69;5088993;28;20210;-73
2022/06/07 09:36:38;;;;;;;2.90;2.80;;;;;;;29.42;53.58;99360.09;5084774;28;20206;-72
2022/06/07 09:39:13;;;;;;;4.05;3.70;;;;;;;29.09;53.14;99360.06;5086492;28;20199;-71
2022/06/07 09:41:44;;;;;;;3.35;3.15;;;;;;;28.75;55.67;99337.47;5089240;28;20226;-72
2022/06/07 09:44:21;;;;;;;4.22;2.50;;;;;;;28.98;54.08;99349.84;5088873;28;20654;-72
2022/06/07 09:46:52;;;;;;;4.32;2.70;;;;;;;29.00;53.94;99334.66;5088414;28;20734;-72
2022/06/07 09:49:27;;;;;;;2.42;2.22;;;;;;;29.13;53.63;99342.09;5088947;28;20195;-71
2022/06/07 09:51:55;;;;;;;2.93;2.60;;;;;;;29.27;53.53;99345.91;5087741;28;20199;-71
2022/06/07 09:54:22;;;;;;;2.63;2.33;;;;;;;29.42;53.79;99338.97;5088527;28;20218;-71
2022/06/07 09:57:03;;;;;;;2.22;2.13;;;;;;;29.48;55.11;99333.00;5086051;28;20260;-71
2022/06/07 09:59:46;;;;;;;3.00;2.90;;;;;;;29.28;54.91;99331.69;5088068;28;20203;-71
2022/06/07 10:02:49;;;;;;;3.00;2.90;;;;;;;29.21;59.32;99320.94;5087947;28;20203;-71
2022/06/07 10:05:22;;;;;;;2.50;2.30;;;;;;;29.31;53.80;99323.44;5084749;28;20203;-72
2022/06/07 10:08:01;;;;;;;3.13;2.90;;;;;;;29.21;54.84;99317.50;5084670;28;20865;-71
2022/06/07 10:10:38;;;;;;;3.13;2.92;;;;;;;29.43;55.87;99311.56;5085275;28;20281;-72
2022/06/07 10:13:18;;;;;;;3.60;3.30;;;;;;;29.43;53.86;99309.75;5088191;28;20222;-71
2022/06/07 10:15:50;;;;;;;2.87;2.77;;;;;;;29.32;52.50;99309.25;5088203;28;20203;-72
2022/06/07 10:18:42;;;;;;;3.38;3.08;;;;;;;29.42;55.67;99297.53;5084659;28;20206;-71
2022/06/07 10:21:25;;;;;;;3.20;3.10;;;;;;;29.51;52.61;99298.31;5086683;28;20227;-74
2022/06/07 10:24:12;;;;;;;3.80;2.50;;;;;;;29.64;53.54;99294.16;5086667;28;20272;-72
2022/06/07 10:26:51;;;;;;;2.38;2.28;;;;;;;29.55;52.36;99283.78;5087586;28;20238;-72
2022/06/07 10:29:40;;;;;;;2.30;2.20;;;;;;;29.85;53.01;99283.06;5086269;28;20564;-70
2022/06/07 10:32:18;;;;;;;3.05;2.28;;;;;;;30.12;51.43;99290.50;5085798;28;20921;-71
2022/06/07 10:34:53;;;;;;;2.17;2.08;;;;;;;30.29;54.02;99259.50;5087517;28;20288;-71
2022/06/07 10:37:34;;;;;;;3.08;2.65;;;;;;;30.41;51.25;99283.75;5087915;28;20206;-73
2022/06/07 10:40:11;;;;;;;3.88;2.80;;;;;;;30.63;53.26;99273.19;5091317;28;20594;-72
2022/06/07 10:42:45;;;;;;;2.75;2.63;;;;;;;30.56;53.74;99266.16;5092338;28;20199;-71
2022/06/07 10:45:19;;;;;;;2.90;2.80;;;;;;;30.13;53.25;99263.09;5090446;28;20702;-72
2022/06/07 10:47:56;;;;;;;2.70;2.60;;;;;;;30.09;55.57;99253.84;5092407;28;20302;-73
2022/06/07 10:50:28;;;;;;;2.47;2.38;;;;;;;30.24;52.84;99255.75;5093574;28;20221;-72
2022/06/07 10:53:02;;;;;;;2.75;2.55;;;;;;;30.16;51.55;99257.44;5093212;28;20206;-76
2022/06/07 10:55:39;;;;;;;2.70;2.55;;;;;;;30.04;49.35;99261.50;5093570;28;20597;-71
2022/06/07 10:58:30;;;;;;;2.38;2.28;;;;;;;29.96;50.94;99244.81;5093235;28;20195;-69
2022/06/07 11:01:03;;;;;;;2.63;2.53;;;;;;;30.00;49.20;99249.59;5092603;28;20574;-71
2022/06/07 11:03:47;;;;;;;2.33;2.22;;;;;;;30.10;51.10;99244.94;5092534;28;20290;-69
2022/06/07 11:09:22;;;;;;;2.55;2.45;;;;;;;29.57;49.92;99234.25;5091049;28;20587;-75
2022/06/07 11:11:53;;;;;;;2.33;2.22;;;;;;;29.39;52.54;99233.66;5090979;28;20191;-76
2022/06/07 11:14:42;;;;;;;2.45;2.35;;;;;;;29.54;51.45;99229.28;5090146;28;20245;-75
2022/06/07 11:17:21;;;;;;;2.08;1.98;;;;;;;29.65;53.43;99221.00;5091169;28;20207;-73
2022/06/07 11:19:49;;;;;;;1.65;1.63;;;;;;;29.80;52.18;99221.09;5090430;28;20587;-73
2022/06/07 11:22:20;;;;;;;2.50;2.40;;;;;;;29.51;53.82;99209.34;5090704;28;20223;-69
2022/06/07 11:24:59;;;;;;;2.72;2.63;;;;;;;29.64;53.41;99217.53;5086655;28;20238;-70
2022/06/07 11:27:28;;;;;;;2.38;2.25;;;;;;;29.82;52.34;99204.09;5090698;28;20289;-69
2022/06/07 11:30:28;;;;;;;2.30;2.20;;;;;;;30.00;50.08;99211.75;5090153;28;20199;-69
2022/06/07 11:32:57;;;;;;;2.60;2.50;;;;;;;30.03;51.17;99206.97;5090743;28;20203;-67
2022/06/07 11:35:44;;;;;;;2.47;2.38;;;;;;;30.00;52.33;99207.31;5091713;28;20212;-69
2022/06/07 11:38:24;;;;;;;2.05;1.98;;;;;;;30.06;51.21;99195.19;5091665;28;20260;-68
2022/06/07 11:41:36;;;;;;;2.28;2.17;;;;;;;29.89;48.61;99199.75;5091665;28;20223;-69
2022/06/07 11:43:56;;;;;;;2.65;2.45;;;;;;;29.52;49.44;99196.94;5088896;28;20203;-67
2022/06/07 11:46:26;;;;;;;2.87;2.77;;;;;;;29.11;51.37;99172.50;5091705;28;20195;-68
2022/06/07 11:48:53;;;;;;;3.00;2.50;;;;;;;29.33;52.73;99184.16;5090813;28;20195;-70
2022/06/07 11:51:23;;;;;;;2.70;2.60;;;;;;;29.15;50.86;99182.53;5089875;28;20567;-67
2022/06/07 11:54:02;;;;;;;3.10;2.90;;;;;;;29.16;51.53;99178.91;5090879;28;20207;-72
2022/06/07 11:56:36;;;;;;;2.65;2.45;;;;;;;29.19;50.36;99175.09;5090540;28;20744;-69
2022/06/07 11:59:34;;;;;;;2.33;1.75;;;;;;;28.89;49.21;99179.28;5089294;28;20239;-72
2022/06/07 12:02:25;;;;;;;2.28;2.17;;;;;;;29.01;49.37;99177.13;5092024;28;20250;-69